sensor_id;sensor_type;location;lat;lon;timestamp;P1;durP1;ratioP1;P2;durP2;ratioP2
82806;SDS011;72563;44.816;20.484;2023-09-30T00:01:50;14.90;;;7.95;;
82806;SDS011;72563;44.816;20.484;2023-09-30T00:04:17;15.63;;;7.70;;
82806;SDS011;72563;44.816;20.484;2023-09-30T00:06:43;15.07;;;9.02;;
82806;SDS011;72563;44.816;20.484;2023-09-30T00:09:08;15.45;;;8.60;;
82806;SDS011;72563;44.816;20.484;2023-09-30T00:11:34;17.85;;;8.63;;
82806;SDS011;72563;44.816;20.484;2023-09-30T00:14:00;16.23;;;7.68;;
82806;SDS011;72563;44.816;20.484;2023-09-30T00:16:25;18.00;;;7.45;;
82806;SDS011;72563;44.816;20.484;2023-09-30T00:18:51;18.00;;;7.57;;
82806;SDS011;72563;44.816;20.484;2023-09-30T00:21:16;17.55;;;7.35;;
82806;SDS011;72563;44.816;20.484;2023-09-30T00:23:42;13.48;;;7.80;;
82806;SDS011;72563;44.816;20.484;2023-09-30T00:26:07;20.02;;;8.18;;
82806;SDS011;72563;44.816;20.484;2023-09-30T00:28:33;14.13;;;7.70;;
82806;SDS011;72563;44.816;20.484;2023-09-30T00:30:58;12.45;;;6.47;;
82806;SDS011;72563;44.816;20.484;2023-09-30T00:33:24;18.40;;;7.95;;
82806;SDS011;72563;44.816;20.484;2023-09-30T00:35:50;13.52;;;7.22;;
82806;SDS011;72563;44.816;20.484;2023-09-30T00:38:15;12.63;;;7.25;;
82806;SDS011;72563;44.816;20.484;2023-09-30T00:40:50;14.60;;;6.60;;
82806;SDS011;72563;44.816;20.484;2023-09-30T00:43:19;11.85;;;6.85;;
82806;SDS011;72563;44.816;20.484;2023-09-30T00:45:46;13.82;;;7.68;;
82806;SDS011;72563;44.816;20.484;2023-09-30T00:48:14;13.45;;;7.57;;
82806;SDS011;72563;44.816;20.484;2023-09-30T00:50:39;18.60;;;8.07;;
82806;SDS011;72563;44.816;20.484;2023-09-30T00:53:06;17.77;;;6.85;;
82806;SDS011;72563;44.816;20.484;2023-09-30T00:55:32;14.75;;;7.40;;
82806;SDS011;72563;44.816;20.484;2023-09-30T00:57:58;15.95;;;7.07;;
82806;SDS011;72563;44.816;20.484;2023-09-30T01:00:24;15.10;;;7.38;;
82806;SDS011;72563;44.816;20.484;2023-09-30T01:02:50;14.75;;;6.75;;
82806;SDS011;72563;44.816;20.484;2023-09-30T01:05:18;14.48;;;6.78;;
82806;SDS011;72563;44.816;20.484;2023-09-30T01:07:44;10.90;;;6.32;;
82806;SDS011;72563;44.816;20.484;2023-09-30T01:10:09;14.23;;;7.28;;
82806;SDS011;72563;44.816;20.484;2023-09-30T01:12:35;13.35;;;6.78;;
82806;SDS011;72563;44.816;20.484;2023-09-30T01:15:00;14.70;;;7.20;;
82806;SDS011;72563;44.816;20.484;2023-09-30T01:17:26;13.23;;;6.55;;
82806;SDS011;72563;44.816;20.484;2023-09-30T01:19:54;13.18;;;7.03;;
82806;SDS011;72563;44.816;20.484;2023-09-30T01:22:19;14.88;;;8.02;;
82806;SDS011;72563;44.816;20.484;2023-09-30T01:24:45;15.25;;;7.03;;
82806;SDS011;72563;44.816;20.484;2023-09-30T01:27:12;12.75;;;7.20;;
82806;SDS011;72563;44.816;20.484;2023-09-30T01:29:38;11.55;;;6.32;;
82806;SDS011;72563;44.816;20.484;2023-09-30T01:32:04;14.68;;;6.75;;
82806;SDS011;72563;44.816;20.484;2023-09-30T01:34:34;15.63;;;7.55;;
82806;SDS011;72563;44.816;20.484;2023-09-30T01:37:00;14.77;;;7.25;;
82806;SDS011;72563;44.816;20.484;2023-09-30T01:39:26;15.75;;;8.30;;
82806;SDS011;72563;44.816;20.484;2023-09-30T01:41:51;14.75;;;7.55;;
82806;SDS011;72563;44.816;20.484;2023-09-30T01:44:17;16.45;;;8.48;;
82806;SDS011;72563;44.816;20.484;2023-09-30T01:46:42;14.52;;;7.75;;
82806;SDS011;72563;44.816;20.484;2023-09-30T01:49:08;14.45;;;8.75;;
82806;SDS011;72563;44.816;20.484;2023-09-30T01:51:33;16.27;;;7.95;;
82806;SDS011;72563;44.816;20.484;2023-09-30T01:53:59;14.25;;;8.77;;
82806;SDS011;72563;44.816;20.484;2023-09-30T01:56:25;16.20;;;8.32;;
82806;SDS011;72563;44.816;20.484;2023-09-30T01:58:50;17.70;;;8.88;;
82806;SDS011;72563;44.816;20.484;2023-09-30T02:01:16;20.60;;;9.13;;
82806;SDS011;72563;44.816;20.484;2023-09-30T02:03:41;16.48;;;9.25;;
82806;SDS011;72563;44.816;20.484;2023-09-30T02:06:07;15.95;;;8.75;;
82806;SDS011;72563;44.816;20.484;2023-09-30T02:08:33;17.42;;;8.98;;
82806;SDS011;72563;44.816;20.484;2023-09-30T02:11:01;15.55;;;8.63;;
82806;SDS011;72563;44.816;20.484;2023-09-30T02:13:27;17.27;;;9.32;;
82806;SDS011;72563;44.816;20.484;2023-09-30T02:15:53;14.73;;;9.27;;
82806;SDS011;72563;44.816;20.484;2023-09-30T02:18:20;14.95;;;8.90;;
82806;SDS011;72563;44.816;20.484;2023-09-30T02:20:46;16.95;;;8.95;;
82806;SDS011;72563;44.816;20.484;2023-09-30T02:23:12;18.13;;;9.73;;
82806;SDS011;72563;44.816;20.484;2023-09-30T02:25:38;17.17;;;9.68;;
82806;SDS011;72563;44.816;20.484;2023-09-30T02:28:04;14.85;;;9.00;;
82806;SDS011;72563;44.816;20.484;2023-09-30T02:30:32;16.13;;;8.68;;
82806;SDS011;72563;44.816;20.484;2023-09-30T02:32:57;14.77;;;10.13;;
82806;SDS011;72563;44.816;20.484;2023-09-30T02:35:23;16.90;;;9.57;;
82806;SDS011;72563;44.816;20.484;2023-09-30T02:37:49;17.88;;;9.88;;
82806;SDS011;72563;44.816;20.484;2023-09-30T02:40:15;18.20;;;9.50;;
82806;SDS011;72563;44.816;20.484;2023-09-30T02:42:42;15.18;;;9.05;;
82806;SDS011;72563;44.816;20.484;2023-09-30T02:45:08;16.70;;;10.20;;
82806;SDS011;72563;44.816;20.484;2023-09-30T02:47:35;16.63;;;9.10;;
82806;SDS011;72563;44.816;20.484;2023-09-30T02:50:01;17.70;;;8.90;;
82806;SDS011;72563;44.816;20.484;2023-09-30T02:52:30;17.38;;;9.43;;
82806;SDS011;72563;44.816;20.484;2023-09-30T02:54:56;15.52;;;8.95;;
82806;SDS011;72563;44.816;20.484;2023-09-30T02:57:24;18.00;;;9.70;;
82806;SDS011;72563;44.816;20.484;2023-09-30T02:59:50;14.35;;;9.00;;
82806;SDS011;72563;44.816;20.484;2023-09-30T03:02:17;14.13;;;8.10;;
82806;SDS011;72563;44.816;20.484;2023-09-30T03:04:43;16.95;;;8.90;;
82806;SDS011;72563;44.816;20.484;2023-09-30T03:07:09;16.48;;;9.32;;
82806;SDS011;72563;44.816;20.484;2023-09-30T03:09:35;19.10;;;8.45;;
82806;SDS011;72563;44.816;20.484;2023-09-30T03:12:03;19.70;;;9.48;;
82806;SDS011;72563;44.816;20.484;2023-09-30T03:14:29;18.38;;;8.90;;
82806;SDS011;72563;44.816;20.484;2023-09-30T03:16:56;20.50;;;10.38;;
82806;SDS011;72563;44.816;20.484;2023-09-30T03:19:22;19.48;;;8.65;;
82806;SDS011;72563;44.816;20.484;2023-09-30T03:21:48;16.00;;;9.70;;
82806;SDS011;72563;44.816;20.484;2023-09-30T03:24:13;13.73;;;8.18;;
82806;SDS011;72563;44.816;20.484;2023-09-30T03:26:39;15.07;;;8.45;;
82806;SDS011;72563;44.816;20.484;2023-09-30T03:29:06;16.23;;;8.90;;
82806;SDS011;72563;44.816;20.484;2023-09-30T03:31:33;21.23;;;9.40;;
82806;SDS011;72563;44.816;20.484;2023-09-30T03:34:00;19.50;;;8.60;;
82806;SDS011;72563;44.816;20.484;2023-09-30T03:36:25;16.00;;;8.93;;
82806;SDS011;72563;44.816;20.484;2023-09-30T03:38:52;16.17;;;10.05;;
82806;SDS011;72563;44.816;20.484;2023-09-30T03:41:23;13.68;;;8.25;;
82806;SDS011;72563;44.816;20.484;2023-09-30T03:43:49;15.90;;;8.85;;
82806;SDS011;72563;44.816;20.484;2023-09-30T03:46:16;14.82;;;8.38;;
82806;SDS011;72563;44.816;20.484;2023-09-30T03:48:42;20.35;;;8.35;;
82806;SDS011;72563;44.816;20.484;2023-09-30T03:53:41;18.13;;;9.70;;
82806;SDS011;72563;44.816;20.484;2023-09-30T03:56:07;17.35;;;7.80;;
82806;SDS011;72563;44.816;20.484;2023-09-30T03:58:33;14.68;;;8.00;;
82806;SDS011;72563;44.816;20.484;2023-09-30T04:00:59;14.70;;;8.23;;
82806;SDS011;72563;44.816;20.484;2023-09-30T04:03:25;16.55;;;7.65;;
82806;SDS011;72563;44.816;20.484;2023-09-30T04:05:52;17.02;;;8.40;;
82806;SDS011;72563;44.816;20.484;2023-09-30T04:08:18;16.38;;;7.70;;
82806;SDS011;72563;44.816;20.484;2023-09-30T04:10:44;14.93;;;8.43;;
82806;SDS011;72563;44.816;20.484;2023-09-30T04:13:09;13.73;;;8.52;;
82806;SDS011;72563;44.816;20.484;2023-09-30T04:15:36;14.80;;;8.25;;
82806;SDS011;72563;44.816;20.484;2023-09-30T04:18:02;17.02;;;8.65;;
82806;SDS011;72563;44.816;20.484;2023-09-30T04:20:30;16.25;;;8.55;;
82806;SDS011;72563;44.816;20.484;2023-09-30T04:22:56;17.67;;;8.65;;
82806;SDS011;72563;44.816;20.484;2023-09-30T04:25:22;14.23;;;8.77;;
82806;SDS011;72563;44.816;20.484;2023-09-30T04:27:50;16.92;;;8.30;;
82806;SDS011;72563;44.816;20.484;2023-09-30T04:30:18;15.57;;;8.30;;
82806;SDS011;72563;44.816;20.484;2023-09-30T04:32:44;14.55;;;8.10;;
82806;SDS011;72563;44.816;20.484;2023-09-30T04:35:10;16.33;;;8.32;;
82806;SDS011;72563;44.816;20.484;2023-09-30T04:37:36;17.42;;;8.85;;
82806;SDS011;72563;44.816;20.484;2023-09-30T04:40:06;14.50;;;8.75;;
82806;SDS011;72563;44.816;20.484;2023-09-30T04:42:43;15.43;;;8.82;;
82806;SDS011;72563;44.816;20.484;2023-09-30T04:45:12;13.55;;;8.70;;
82806;SDS011;72563;44.816;20.484;2023-09-30T04:47:38;17.77;;;8.27;;
82806;SDS011;72563;44.816;20.484;2023-09-30T04:50:07;19.02;;;8.85;;
82806;SDS011;72563;44.816;20.484;2023-09-30T04:52:34;17.02;;;8.77;;
82806;SDS011;72563;44.816;20.484;2023-09-30T04:55:00;16.88;;;8.75;;
82806;SDS011;72563;44.816;20.484;2023-09-30T04:57:26;17.17;;;8.07;;
82806;SDS011;72563;44.816;20.484;2023-09-30T04:59:51;14.80;;;7.93;;
82806;SDS011;72563;44.816;20.484;2023-09-30T05:02:17;16.50;;;9.43;;
82806;SDS011;72563;44.816;20.484;2023-09-30T05:04:42;17.73;;;8.02;;
82806;SDS011;72563;44.816;20.484;2023-09-30T05:07:08;17.90;;;8.85;;
82806;SDS011;72563;44.816;20.484;2023-09-30T05:09:34;15.07;;;7.60;;
82806;SDS011;72563;44.816;20.484;2023-09-30T05:11:59;16.08;;;8.75;;
82806;SDS011;72563;44.816;20.484;2023-09-30T05:14:25;16.63;;;8.20;;
82806;SDS011;72563;44.816;20.484;2023-09-30T05:16:50;17.67;;;8.50;;
82806;SDS011;72563;44.816;20.484;2023-09-30T05:19:16;17.58;;;8.85;;
82806;SDS011;72563;44.816;20.484;2023-09-30T05:21:41;14.98;;;9.05;;
82806;SDS011;72563;44.816;20.484;2023-09-30T05:24:07;15.90;;;8.70;;
82806;SDS011;72563;44.816;20.484;2023-09-30T05:26:33;21.15;;;9.20;;
82806;SDS011;72563;44.816;20.484;2023-09-30T05:28:59;16.05;;;8.68;;
82806;SDS011;72563;44.816;20.484;2023-09-30T05:31:24;15.75;;;9.05;;
82806;SDS011;72563;44.816;20.484;2023-09-30T05:33:50;16.85;;;9.07;;
82806;SDS011;72563;44.816;20.484;2023-09-30T05:36:15;20.00;;;8.48;;
82806;SDS011;72563;44.816;20.484;2023-09-30T05:38:41;14.40;;;7.95;;
82806;SDS011;72563;44.816;20.484;2023-09-30T05:41:07;18.35;;;8.38;;
82806;SDS011;72563;44.816;20.484;2023-09-30T05:43:33;13.63;;;7.93;;
82806;SDS011;72563;44.816;20.484;2023-09-30T05:45:58;16.30;;;8.77;;
82806;SDS011;72563;44.816;20.484;2023-09-30T05:48:24;13.48;;;7.30;;
82806;SDS011;72563;44.816;20.484;2023-09-30T05:50:50;13.52;;;6.75;;
82806;SDS011;72563;44.816;20.484;2023-09-30T05:53:15;12.65;;;7.25;;
82806;SDS011;72563;44.816;20.484;2023-09-30T05:55:41;17.70;;;7.97;;
82806;SDS011;72563;44.816;20.484;2023-09-30T05:58:07;13.63;;;7.60;;
82806;SDS011;72563;44.816;20.484;2023-09-30T06:00:38;12.82;;;7.13;;
82806;SDS011;72563;44.816;20.484;2023-09-30T06:03:05;17.17;;;7.40;;
82806;SDS011;72563;44.816;20.484;2023-09-30T06:05:32;13.32;;;7.05;;
82806;SDS011;72563;44.816;20.484;2023-09-30T06:07:59;15.20;;;6.75;;
82806;SDS011;72563;44.816;20.484;2023-09-30T06:10:28;11.95;;;7.32;;
82806;SDS011;72563;44.816;20.484;2023-09-30T06:12:54;11.70;;;6.53;;
82806;SDS011;72563;44.816;20.484;2023-09-30T06:15:20;16.20;;;7.75;;
82806;SDS011;72563;44.816;20.484;2023-09-30T06:20:48;14.48;;;6.65;;
82806;SDS011;72563;44.816;20.484;2023-09-30T06:23:17;14.18;;;6.40;;
82806;SDS011;72563;44.816;20.484;2023-09-30T06:25:55;14.13;;;6.90;;
82806;SDS011;72563;44.816;20.484;2023-09-30T06:28:27;15.43;;;6.63;;
82806;SDS011;72563;44.816;20.484;2023-09-30T06:30:53;11.95;;;6.80;;
82806;SDS011;72563;44.816;20.484;2023-09-30T06:33:18;11.25;;;6.38;;
82806;SDS011;72563;44.816;20.484;2023-09-30T06:35:44;11.55;;;6.25;;
82806;SDS011;72563;44.816;20.484;2023-09-30T06:38:18;12.48;;;7.03;;
82806;SDS011;72563;44.816;20.484;2023-09-30T06:40:44;14.73;;;6.65;;
82806;SDS011;72563;44.816;20.484;2023-09-30T06:43:15;13.85;;;6.65;;
82806;SDS011;72563;44.816;20.484;2023-09-30T06:45:43;15.07;;;6.45;;
82806;SDS011;72563;44.816;20.484;2023-09-30T06:48:10;13.18;;;6.35;;
82806;SDS011;72563;44.816;20.484;2023-09-30T06:50:43;14.90;;;7.28;;
82806;SDS011;72563;44.816;20.484;2023-09-30T06:53:10;16.20;;;7.03;;
82806;SDS011;72563;44.816;20.484;2023-09-30T06:55:36;13.88;;;6.55;;
82806;SDS011;72563;44.816;20.484;2023-09-30T06:58:05;12.65;;;6.03;;
82806;SDS011;72563;44.816;20.484;2023-09-30T07:00:36;14.30;;;6.90;;
82806;SDS011;72563;44.816;20.484;2023-09-30T07:03:02;15.50;;;6.55;;
82806;SDS011;72563;44.816;20.484;2023-09-30T07:05:28;15.25;;;7.35;;
82806;SDS011;72563;44.816;20.484;2023-09-30T07:07:54;13.95;;;6.78;;
82806;SDS011;72563;44.816;20.484;2023-09-30T07:10:20;16.67;;;6.32;;
82806;SDS011;72563;44.816;20.484;2023-09-30T07:12:46;16.05;;;6.32;;
82806;SDS011;72563;44.816;20.484;2023-09-30T07:15:13;14.10;;;6.70;;
82806;SDS011;72563;44.816;20.484;2023-09-30T07:17:41;15.05;;;6.47;;
82806;SDS011;72563;44.816;20.484;2023-09-30T07:20:07;11.75;;;7.65;;
82806;SDS011;72563;44.816;20.484;2023-09-30T07:22:35;10.13;;;5.97;;
82806;SDS011;72563;44.816;20.484;2023-09-30T07:25:00;10.77;;;6.30;;
82806;SDS011;72563;44.816;20.484;2023-09-30T07:27:26;12.85;;;6.95;;
82806;SDS011;72563;44.816;20.484;2023-09-30T07:29:51;11.30;;;6.28;;
82806;SDS011;72563;44.816;20.484;2023-09-30T07:32:17;15.07;;;7.07;;
82806;SDS011;72563;44.816;20.484;2023-09-30T07:34:42;13.43;;;6.53;;
82806;SDS011;72563;44.816;20.484;2023-09-30T07:37:08;12.80;;;6.40;;
82806;SDS011;72563;44.816;20.484;2023-09-30T07:39:35;12.50;;;7.03;;
82806;SDS011;72563;44.816;20.484;2023-09-30T07:42:01;11.95;;;5.97;;
82806;SDS011;72563;44.816;20.484;2023-09-30T07:44:27;14.98;;;6.93;;
82806;SDS011;72563;44.816;20.484;2023-09-30T07:46:52;12.70;;;7.05;;
82806;SDS011;72563;44.816;20.484;2023-09-30T07:49:18;11.32;;;6.88;;
82806;SDS011;72563;44.816;20.484;2023-09-30T07:51:44;15.82;;;6.43;;
82806;SDS011;72563;44.816;20.484;2023-09-30T07:54:11;11.45;;;5.95;;
82806;SDS011;72563;44.816;20.484;2023-09-30T07:56:37;16.02;;;7.88;;
82806;SDS011;72563;44.816;20.484;2023-09-30T07:59:02;12.63;;;6.63;;
82806;SDS011;72563;44.816;20.484;2023-09-30T08:01:28;13.25;;;6.90;;
82806;SDS011;72563;44.816;20.484;2023-09-30T08:06:21;11.70;;;6.60;;
82806;SDS011;72563;44.816;20.484;2023-09-30T08:08:46;14.68;;;6.05;;
82806;SDS011;72563;44.816;20.484;2023-09-30T08:11:12;13.65;;;6.30;;
82806;SDS011;72563;44.816;20.484;2023-09-30T08:13:38;14.57;;;6.60;;
82806;SDS011;72563;44.816;20.484;2023-09-30T08:16:04;13.48;;;7.00;;
82806;SDS011;72563;44.816;20.484;2023-09-30T08:18:29;15.63;;;7.05;;
82806;SDS011;72563;44.816;20.484;2023-09-30T08:20:55;13.35;;;6.75;;
82806;SDS011;72563;44.816;20.484;2023-09-30T08:23:20;12.38;;;6.95;;
82806;SDS011;72563;44.816;20.484;2023-09-30T08:25:46;12.25;;;6.43;;
82806;SDS011;72563;44.816;20.484;2023-09-30T08:28:12;11.32;;;6.60;;
82806;SDS011;72563;44.816;20.484;2023-09-30T08:30:37;15.35;;;7.15;;
82806;SDS011;72563;44.816;20.484;2023-09-30T08:33:03;11.45;;;6.57;;
82806;SDS011;72563;44.816;20.484;2023-09-30T08:35:29;12.00;;;6.68;;
82806;SDS011;72563;44.816;20.484;2023-09-30T08:37:56;14.05;;;7.03;;
82806;SDS011;72563;44.816;20.484;2023-09-30T08:40:23;16.83;;;7.63;;
82806;SDS011;72563;44.816;20.484;2023-09-30T08:42:50;13.23;;;6.68;;
82806;SDS011;72563;44.816;20.484;2023-09-30T08:45:17;12.45;;;6.32;;
82806;SDS011;72563;44.816;20.484;2023-09-30T08:47:43;11.98;;;7.10;;
82806;SDS011;72563;44.816;20.484;2023-09-30T08:50:09;14.23;;;7.85;;
82806;SDS011;72563;44.816;20.484;2023-09-30T08:52:37;11.80;;;7.00;;
82806;SDS011;72563;44.816;20.484;2023-09-30T08:55:04;17.45;;;6.65;;
82806;SDS011;72563;44.816;20.484;2023-09-30T08:57:31;12.05;;;7.00;;
82806;SDS011;72563;44.816;20.484;2023-09-30T08:59:57;14.05;;;7.10;;
82806;SDS011;72563;44.816;20.484;2023-09-30T09:02:23;12.75;;;7.13;;
82806;SDS011;72563;44.816;20.484;2023-09-30T09:04:49;12.52;;;6.70;;
82806;SDS011;72563;44.816;20.484;2023-09-30T09:07:14;14.00;;;7.10;;
82806;SDS011;72563;44.816;20.484;2023-09-30T09:09:40;13.05;;;6.65;;
82806;SDS011;72563;44.816;20.484;2023-09-30T09:12:06;16.58;;;7.82;;
82806;SDS011;72563;44.816;20.484;2023-09-30T09:14:43;13.30;;;6.90;;
82806;SDS011;72563;44.816;20.484;2023-09-30T09:17:10;12.27;;;6.60;;
82806;SDS011;72563;44.816;20.484;2023-09-30T09:19:36;15.25;;;7.55;;
82806;SDS011;72563;44.816;20.484;2023-09-30T09:22:02;15.02;;;8.55;;
82806;SDS011;72563;44.816;20.484;2023-09-30T09:24:36;12.15;;;6.63;;
82806;SDS011;72563;44.816;20.484;2023-09-30T09:29:34;11.80;;;7.03;;
82806;SDS011;72563;44.816;20.484;2023-09-30T09:32:12;11.60;;;6.68;;
82806;SDS011;72563;44.816;20.484;2023-09-30T09:34:39;12.60;;;7.28;;
82806;SDS011;72563;44.816;20.484;2023-09-30T09:37:12;12.57;;;7.43;;
82806;SDS011;72563;44.816;20.484;2023-09-30T09:39:51;12.95;;;7.50;;
82806;SDS011;72563;44.816;20.484;2023-09-30T09:42:24;11.38;;;6.88;;
82806;SDS011;72563;44.816;20.484;2023-09-30T09:44:55;12.82;;;6.95;;
82806;SDS011;72563;44.816;20.484;2023-09-30T09:47:22;12.98;;;7.40;;
82806;SDS011;72563;44.816;20.484;2023-09-30T09:49:49;10.52;;;6.82;;
82806;SDS011;72563;44.816;20.484;2023-09-30T09:52:16;10.98;;;7.03;;
82806;SDS011;72563;44.816;20.484;2023-09-30T09:54:44;14.20;;;7.82;;
82806;SDS011;72563;44.816;20.484;2023-09-30T09:57:10;11.30;;;6.80;;
82806;SDS011;72563;44.816;20.484;2023-09-30T09:59:38;15.63;;;6.93;;
82806;SDS011;72563;44.816;20.484;2023-09-30T10:02:08;12.00;;;7.80;;
82806;SDS011;72563;44.816;20.484;2023-09-30T10:04:36;10.57;;;6.90;;
82806;SDS011;72563;44.816;20.484;2023-09-30T10:07:02;16.40;;;7.88;;
82806;SDS011;72563;44.816;20.484;2023-09-30T10:09:31;14.68;;;6.90;;
82806;SDS011;72563;44.816;20.484;2023-09-30T10:12:03;14.10;;;6.80;;
82806;SDS011;72563;44.816;20.484;2023-09-30T10:14:33;15.90;;;7.97;;
82806;SDS011;72563;44.816;20.484;2023-09-30T10:16:59;14.02;;;8.35;;
82806;SDS011;72563;44.816;20.484;2023-09-30T10:19:25;12.60;;;7.65;;
82806;SDS011;72563;44.816;20.484;2023-09-30T10:24:56;13.07;;;6.90;;
82806;SDS011;72563;44.816;20.484;2023-09-30T10:35:20;12.65;;;6.28;;
82806;SDS011;72563;44.816;20.484;2023-09-30T10:37:47;12.02;;;6.97;;
82806;SDS011;72563;44.816;20.484;2023-09-30T10:40:26;14.60;;;7.47;;
82806;SDS011;72563;44.816;20.484;2023-09-30T10:42:52;11.63;;;6.45;;
82806;SDS011;72563;44.816;20.484;2023-09-30T10:50:50;10.95;;;6.72;;
82806;SDS011;72563;44.816;20.484;2023-09-30T10:53:17;12.02;;;7.30;;
82806;SDS011;72563;44.816;20.484;2023-09-30T10:55:43;11.10;;;7.10;;
82806;SDS011;72563;44.816;20.484;2023-09-30T10:58:12;14.30;;;6.50;;
82806;SDS011;72563;44.816;20.484;2023-09-30T11:00:39;11.73;;;6.65;;
82806;SDS011;72563;44.816;20.484;2023-09-30T11:03:19;12.45;;;6.82;;
82806;SDS011;72563;44.816;20.484;2023-09-30T11:05:47;10.20;;;5.90;;
82806;SDS011;72563;44.816;20.484;2023-09-30T11:08:14;10.13;;;6.15;;
82806;SDS011;72563;44.816;20.484;2023-09-30T11:10:48;11.88;;;6.95;;
82806;SDS011;72563;44.816;20.484;2023-09-30T11:13:18;11.98;;;6.70;;
82806;SDS011;72563;44.816;20.484;2023-09-30T11:15:44;11.23;;;6.70;;
82806;SDS011;72563;44.816;20.484;2023-09-30T11:18:14;9.05;;;6.18;;
82806;SDS011;72563;44.816;20.484;2023-09-30T11:20:40;10.90;;;6.68;;
82806;SDS011;72563;44.816;20.484;2023-09-30T11:23:06;10.95;;;6.25;;
82806;SDS011;72563;44.816;20.484;2023-09-30T11:25:35;12.23;;;6.43;;
82806;SDS011;72563;44.816;20.484;2023-09-30T11:28:14;9.85;;;6.38;;
82806;SDS011;72563;44.816;20.484;2023-09-30T11:30:56;11.85;;;6.60;;
82806;SDS011;72563;44.816;20.484;2023-09-30T11:33:23;12.63;;;6.25;;
82806;SDS011;72563;44.816;20.484;2023-09-30T11:35:56;10.07;;;6.15;;
82806;SDS011;72563;44.816;20.484;2023-09-30T11:38:27;9.68;;;6.15;;
82806;SDS011;72563;44.816;20.484;2023-09-30T11:43:27;11.75;;;6.15;;
82806;SDS011;72563;44.816;20.484;2023-09-30T11:48:55;12.18;;;6.05;;
82806;SDS011;72563;44.816;20.484;2023-09-30T11:51:25;12.25;;;7.13;;
82806;SDS011;72563;44.816;20.484;2023-09-30T11:53:52;11.38;;;5.95;;
82806;SDS011;72563;44.816;20.484;2023-09-30T11:56:19;9.05;;;5.28;;
82806;SDS011;72563;44.816;20.484;2023-09-30T11:58:45;10.43;;;6.15;;
82806;SDS011;72563;44.816;20.484;2023-09-30T12:01:15;11.52;;;5.78;;
82806;SDS011;72563;44.816;20.484;2023-09-30T12:03:41;12.85;;;5.82;;
82806;SDS011;72563;44.816;20.484;2023-09-30T12:06:07;9.68;;;6.13;;
82806;SDS011;72563;44.816;20.484;2023-09-30T12:08:33;8.80;;;5.25;;
82806;SDS011;72563;44.816;20.484;2023-09-30T12:11:03;10.50;;;5.25;;
82806;SDS011;72563;44.816;20.484;2023-09-30T12:13:28;8.15;;;5.05;;
82806;SDS011;72563;44.816;20.484;2023-09-30T12:15:54;10.48;;;5.60;;
82806;SDS011;72563;44.816;20.484;2023-09-30T12:18:19;9.18;;;5.18;;
82806;SDS011;72563;44.816;20.484;2023-09-30T12:20:49;8.85;;;5.45;;
82806;SDS011;72563;44.816;20.484;2023-09-30T12:23:17;8.73;;;5.15;;
82806;SDS011;72563;44.816;20.484;2023-09-30T12:25:44;9.60;;;4.60;;
82806;SDS011;72563;44.816;20.484;2023-09-30T12:28:09;9.25;;;4.78;;
82806;SDS011;72563;44.816;20.484;2023-09-30T12:30:35;8.65;;;4.53;;
82806;SDS011;72563;44.816;20.484;2023-09-30T12:33:01;8.63;;;5.03;;
82806;SDS011;72563;44.816;20.484;2023-09-30T12:35:26;8.93;;;4.22;;
82806;SDS011;72563;44.816;20.484;2023-09-30T12:37:52;9.82;;;4.30;;
82806;SDS011;72563;44.816;20.484;2023-09-30T12:40:18;7.88;;;4.43;;
82806;SDS011;72563;44.816;20.484;2023-09-30T12:42:43;7.70;;;4.35;;
82806;SDS011;72563;44.816;20.484;2023-09-30T12:45:10;7.85;;;4.20;;
82806;SDS011;72563;44.816;20.484;2023-09-30T12:47:36;8.98;;;4.63;;
82806;SDS011;72563;44.816;20.484;2023-09-30T12:50:02;7.22;;;4.53;;
82806;SDS011;72563;44.816;20.484;2023-09-30T12:52:28;7.85;;;4.68;;
82806;SDS011;72563;44.816;20.484;2023-09-30T12:54:55;9.15;;;4.45;;
82806;SDS011;72563;44.816;20.484;2023-09-30T12:57:21;8.07;;;4.30;;
82806;SDS011;72563;44.816;20.484;2023-09-30T12:59:46;8.73;;;4.60;;
82806;SDS011;72563;44.816;20.484;2023-09-30T13:02:14;8.65;;;4.32;;
82806;SDS011;72563;44.816;20.484;2023-09-30T13:04:40;7.93;;;5.38;;
82806;SDS011;72563;44.816;20.484;2023-09-30T13:07:08;8.90;;;4.70;;
82806;SDS011;72563;44.816;20.484;2023-09-30T13:09:35;7.32;;;4.38;;
82806;SDS011;72563;44.816;20.484;2023-09-30T13:12:02;7.43;;;4.45;;
82806;SDS011;72563;44.816;20.484;2023-09-30T13:14:28;6.45;;;4.03;;
82806;SDS011;72563;44.816;20.484;2023-09-30T13:16:54;9.65;;;5.28;;
82806;SDS011;72563;44.816;20.484;2023-09-30T13:19:19;11.10;;;6.07;;
82806;SDS011;72563;44.816;20.484;2023-09-30T13:21:51;9.65;;;5.82;;
82806;SDS011;72563;44.816;20.484;2023-09-30T13:24:20;9.05;;;5.25;;
82806;SDS011;72563;44.816;20.484;2023-09-30T13:26:46;9.43;;;5.50;;
82806;SDS011;72563;44.816;20.484;2023-09-30T13:29:12;9.20;;;5.40;;
82806;SDS011;72563;44.816;20.484;2023-09-30T13:31:38;10.23;;;5.07;;
82806;SDS011;72563;44.816;20.484;2023-09-30T13:34:06;8.40;;;5.10;;
82806;SDS011;72563;44.816;20.484;2023-09-30T13:36:32;9.80;;;5.60;;
82806;SDS011;72563;44.816;20.484;2023-09-30T13:38:57;8.43;;;4.78;;
82806;SDS011;72563;44.816;20.484;2023-09-30T13:41:23;9.63;;;5.75;;
82806;SDS011;72563;44.816;20.484;2023-09-30T13:43:48;7.75;;;5.47;;
82806;SDS011;72563;44.816;20.484;2023-09-30T13:46:14;9.15;;;5.05;;
82806;SDS011;72563;44.816;20.484;2023-09-30T13:48:41;8.60;;;5.13;;
82806;SDS011;72563;44.816;20.484;2023-09-30T13:51:07;9.93;;;5.45;;
82806;SDS011;72563;44.816;20.484;2023-09-30T13:53:33;9.40;;;4.55;;
82806;SDS011;72563;44.816;20.484;2023-09-30T13:55:59;8.70;;;5.32;;
82806;SDS011;72563;44.816;20.484;2023-09-30T13:58:24;11.70;;;5.03;;
82806;SDS011;72563;44.816;20.484;2023-09-30T14:00:50;10.27;;;6.07;;
82806;SDS011;72563;44.816;20.484;2023-09-30T14:03:19;9.18;;;5.25;;
82806;SDS011;72563;44.816;20.484;2023-09-30T14:05:45;8.30;;;4.47;;
82806;SDS011;72563;44.816;20.484;2023-09-30T14:08:11;7.40;;;4.60;;
82806;SDS011;72563;44.816;20.484;2023-09-30T14:10:37;10.25;;;5.00;;
82806;SDS011;72563;44.816;20.484;2023-09-30T14:13:02;10.02;;;5.03;;
82806;SDS011;72563;44.816;20.484;2023-09-30T14:15:28;10.27;;;5.50;;
82806;SDS011;72563;44.816;20.484;2023-09-30T14:17:56;9.38;;;5.22;;
82806;SDS011;72563;44.816;20.484;2023-09-30T14:20:23;8.95;;;4.90;;
82806;SDS011;72563;44.816;20.484;2023-09-30T14:22:50;10.82;;;5.53;;
82806;SDS011;72563;44.816;20.484;2023-09-30T14:25:22;7.97;;;4.78;;
82806;SDS011;72563;44.816;20.484;2023-09-30T14:27:48;8.63;;;4.90;;
82806;SDS011;72563;44.816;20.484;2023-09-30T14:30:14;9.02;;;4.93;;
82806;SDS011;72563;44.816;20.484;2023-09-30T14:32:40;11.82;;;5.53;;
82806;SDS011;72563;44.816;20.484;2023-09-30T14:35:06;8.23;;;5.22;;
82806;SDS011;72563;44.816;20.484;2023-09-30T14:37:34;12.82;;;5.32;;
82806;SDS011;72563;44.816;20.484;2023-09-30T14:40:00;9.30;;;4.50;;
82806;SDS011;72563;44.816;20.484;2023-09-30T14:42:25;12.32;;;5.70;;
82806;SDS011;72563;44.816;20.484;2023-09-30T14:44:50;11.15;;;6.93;;
82806;SDS011;72563;44.816;20.484;2023-09-30T14:47:16;10.45;;;5.57;;
82806;SDS011;72563;44.816;20.484;2023-09-30T14:49:42;10.45;;;5.85;;
82806;SDS011;72563;44.816;20.484;2023-09-30T14:52:07;8.93;;;4.97;;
82806;SDS011;72563;44.816;20.484;2023-09-30T14:54:34;8.40;;;5.00;;